This demonstration page uses our WeatherBlox Daily Observations layout. Learn more.

Left ArrowRight Arrow

Hourly Observations for February 17, 2015

Temp ( °F °C ) Dew Point ( °F °C ) Humidity (%) Winds ( mph kmh ) Pressure ( in mb ) Visibility ( mi km ) Precip ( " mm )
12:53 am 00:53 Clear -2 -18.9 -6 -21.1 83 83 N N/A 30.04 1017 8 12.87472 N/A
1:53 am 01:53 Clear -8 -22.2 -13 -25 78 78 N N/A 30.05 1018 10 16.0934 N/A
2:53 am 02:53 Clear -6 -21.1 -9 -22.8 86 86 N N/A 30.04 1017 8 12.87472 N/A
3:53 am 03:53 Clear -8 -22.2 -14 -25.6 74 74 N N/A 30.05 1018 8 12.87472 N/A
4:53 am 04:53 Clear -10 -23.3 -15 -26.1 78 78 N N/A 30.05 1018 7 11.26538 N/A
5:53 am 05:53 Clear -11 -23.9 -14 -25.6 86 86 N N/A 30.07 1018 8 12.87472 N/A
6:53 am 06:53 Clear -12 -24.4 -15 -26.1 86 86 N N/A 30.09 1019 9 14.48406 N/A
7:53 am 07:53 Sunny with Mist and Fog -11 -23.9 -15 -26.1 82 82 N N/A 30.09 1019 6 9.65604 N/A
8:53 am 08:53 Sunny 1 -17.2 -2 -18.9 87 87 N N/A 30.1 1019 7 11.26538 N/A
9:53 am 09:53 Sunny with Mist and Fog 5 -15 1 -17.2 83 83 N N/A 30.1 1019 6 9.65604 N/A
10:53 am 10:53 Sunny 12 -11.1 5 -15 73 73 W 8 13 30.11 1020 8 12.87472 N/A
11:53 am 11:53 Cloudy 16 -8.9 5 -15 62 62 W 3 6 30.09 1019 10 16.0934 N/A
12:53 pm 12:53 Cloudy 19 -7.2 5 -15 54 54 W 6 9 30.07 1018 10 16.0934 N/A
1:53 pm 13:53 Cloudy 22 -5.6 8 -13.3 55 55 W 8 13 30.04 1017 10 16.0934 N/A
2:53 pm 14:53 Cloudy 24 -4.4 9 -12.8 52 52 SSW 9 15 30.02 1017 10 16.0934 N/A
3:53 pm 15:53 Cloudy 24 -4.4 10 -12.2 55 55 SW 10 17 30.01 1016 10 16.0934 N/A
4:53 pm 16:53 Cloudy 25 -3.9 11 -11.7 55 55 SW 10 17 30 1016 10 16.0934 N/A
5:53 pm 17:53 Cloudy 24 -4.4 12 -11.1 60 60 SW 8 13 30 1016 10 16.0934 N/A
6:53 pm 18:53 Mostly Cloudy 22 -5.6 11 -11.7 63 63 SSW 5 7 30.01 1016 10 16.0934 N/A
7:53 pm 19:53 Partly Cloudy 21 -6.1 11 -11.7 65 65 S 5 7 30.01 1016 10 16.0934 N/A
8:53 pm 20:53 Mostly Cloudy 20 -6.7 10 -12.2 65 65 SSW 3 6 30 1016 10 16.0934 N/A
9:53 pm 21:53 Mostly Cloudy 21 -6.1 11 -11.7 65 65 SW 5 7 30 1016 10 16.0934 N/A
10:53 pm 22:53 Mostly Cloudy 21 -6.1 12 -11.1 68 68 SW 6 9 29.99 1016 10 16.0934 N/A
11:53 pm 23:53 Mostly Cloudy 21 -6.1 12 -11.1 68 68 WSW 9 15 29.97 1015 10 16.0934 N/A

Powered by AerisWeather